createdAt,value
2019-03-27T00:01:16.153Z,5.50
2019-03-27T00:03:46.348Z,5.27
2019-03-27T00:06:16.522Z,4.83
2019-03-27T00:08:46.692Z,4.43
2019-03-27T00:11:16.925Z,4.67
2019-03-27T00:13:47.102Z,7.80
2019-03-27T00:16:16.332Z,7.77
2019-03-27T00:18:46.567Z,7.43
2019-03-27T00:21:16.758Z,6.73
2019-03-27T00:23:46.880Z,6.23
2019-03-27T00:26:17.252Z,5.73
2019-03-27T00:28:47.405Z,4.23
2019-03-27T00:31:17.574Z,4.70
2019-03-27T00:33:47.769Z,3.27
2019-03-27T00:36:17.961Z,2.50
2019-03-27T00:38:48.166Z,3.20
2019-03-27T00:41:18.349Z,3.13
2019-03-27T00:43:48.521Z,4.00
2019-03-27T00:46:18.687Z,7.77
2019-03-27T00:48:48.941Z,6.70
2019-03-27T00:51:19.153Z,5.23
2019-03-27T00:53:49.378Z,4.63
2019-03-27T00:56:19.530Z,6.00
2019-03-27T00:58:49.693Z,5.40
2019-03-27T01:01:19.916Z,6.57
2019-03-27T01:03:50.068Z,5.70
2019-03-27T01:06:20.212Z,5.37
2019-03-27T01:08:50.504Z,4.40
2019-03-27T01:11:20.618Z,4.93
2019-03-27T01:13:50.780Z,3.50
2019-03-27T01:16:20.952Z,3.13
2019-03-27T01:18:51.108Z,2.90
2019-03-27T01:21:21.273Z,3.80
2019-03-27T01:23:51.455Z,4.03
2019-03-27T01:26:20.675Z,3.10
2019-03-27T01:28:50.802Z,3.53
2019-03-27T01:31:21.057Z,3.40
2019-03-27T01:33:51.357Z,3.27
2019-03-27T01:36:21.500Z,3.43
2019-03-27T01:38:51.713Z,3.27
2019-03-27T01:41:21.947Z,3.80
2019-03-27T01:43:52.127Z,3.90
2019-03-27T01:46:22.350Z,4.60
2019-03-27T01:48:52.538Z,5.80
2019-03-27T01:51:22.712Z,4.03
2019-03-27T01:53:52.987Z,5.27
2019-03-27T01:56:23.170Z,4.43
2019-03-27T01:58:53.363Z,5.63
2019-03-27T02:01:23.562Z,4.87
2019-03-27T02:03:53.769Z,5.00
2019-03-27T02:06:23.937Z,5.20
2019-03-27T02:08:54.087Z,5.37
2019-03-27T02:11:24.235Z,4.47
2019-03-27T02:13:54.413Z,5.13
2019-03-27T02:16:24.689Z,4.83
2019-03-27T02:18:54.867Z,4.63
2019-03-27T02:21:25.257Z,4.90
2019-03-27T02:23:55.480Z,4.17
2019-03-27T02:26:25.652Z,4.63
2019-03-27T02:28:55.865Z,4.97
2019-03-27T02:31:26.084Z,5.30
2019-03-27T02:33:56.287Z,4.23
2019-03-27T02:36:26.467Z,5.37
2019-03-27T02:38:56.662Z,5.47
2019-03-27T02:41:26.897Z,5.80
2019-03-27T02:43:57.075Z,5.27
2019-03-27T02:46:27.250Z,5.17
2019-03-27T02:48:57.452Z,5.23
2019-03-27T02:51:27.595Z,6.30
2019-03-27T02:53:57.831Z,5.60
2019-03-27T02:56:28.077Z,5.57
2019-03-27T02:58:58.239Z,5.67
2019-03-27T03:01:28.435Z,6.07
2019-03-27T03:03:58.607Z,6.80
2019-03-27T03:06:28.756Z,5.93
2019-03-27T03:08:58.968Z,5.13
2019-03-27T03:11:29.134Z,6.30
2019-03-27T03:13:59.321Z,6.63
2019-03-27T03:16:41.395Z,6.10
2019-03-27T03:18:59.482Z,6.30
2019-03-27T03:21:29.632Z,6.73
2019-03-27T03:23:59.961Z,5.83
2019-03-27T03:26:30.289Z,6.20
2019-03-27T03:29:00.462Z,6.60
2019-03-27T03:31:30.670Z,6.33
2019-03-27T03:34:01.035Z,5.37
2019-03-27T03:36:31.204Z,7.07
2019-03-27T03:39:01.431Z,6.57
2019-03-27T03:41:31.617Z,6.57
2019-03-27T03:44:01.738Z,7.53
2019-03-27T03:46:33.973Z,7.57
2019-03-27T03:49:04.143Z,7.40
2019-03-27T03:51:34.310Z,6.90
2019-03-27T03:54:05.452Z,6.97
2019-03-27T03:56:35.667Z,5.97
2019-03-27T03:59:06.379Z,6.83
2019-03-27T04:01:37.982Z,6.10
2019-03-27T04:04:09.625Z,6.77
2019-03-27T04:06:38.929Z,6.90
2019-03-27T04:09:09.278Z,7.00
2019-03-27T04:11:39.607Z,7.23
2019-03-27T04:14:09.819Z,6.70
2019-03-27T04:16:39.110Z,6.97
2019-03-27T04:19:09.342Z,7.37
2019-03-27T04:21:39.443Z,7.07
2019-03-27T04:24:09.645Z,6.07
2019-03-27T04:26:39.809Z,6.33
2019-03-27T04:29:10.076Z,6.70
2019-03-27T04:31:40.282Z,6.97
2019-03-27T04:34:10.430Z,6.43
2019-03-27T04:36:40.721Z,6.03
2019-03-27T04:39:10.903Z,5.90
2019-03-27T04:41:41.261Z,6.33
2019-03-27T04:44:11.439Z,5.93
2019-03-27T04:46:41.610Z,6.97
2019-03-27T04:49:11.860Z,6.37
2019-03-27T04:51:42.070Z,5.63
2019-03-27T04:54:12.399Z,6.50
2019-03-27T04:56:42.623Z,6.83
2019-03-27T04:59:12.844Z,6.60
2019-03-27T05:01:42.987Z,6.50
2019-03-27T05:04:13.219Z,7.13
2019-03-27T05:06:42.456Z,7.80
2019-03-27T05:09:12.767Z,7.00
2019-03-27T05:11:42.958Z,7.13
2019-03-27T05:14:13.257Z,7.17
2019-03-27T05:16:43.542Z,6.80
2019-03-27T05:19:13.767Z,6.87
2019-03-27T05:21:43.988Z,7.30
2019-03-27T05:24:14.192Z,6.97
2019-03-27T05:26:44.583Z,8.70
2019-03-27T05:29:14.749Z,9.23
2019-03-27T05:31:44.954Z,9.27
2019-03-27T05:34:15.239Z,9.13
2019-03-27T05:36:44.550Z,7.57
2019-03-27T05:39:14.883Z,9.37
2019-03-27T05:41:45.142Z,8.43
2019-03-27T05:44:15.345Z,7.20
2019-03-27T05:46:45.563Z,6.60
2019-03-27T05:49:15.827Z,7.70
2019-03-27T05:51:45.158Z,6.53
2019-03-27T05:54:15.406Z,7.03
2019-03-27T05:56:45.640Z,6.40
2019-03-27T05:59:15.888Z,6.63
2019-03-27T06:01:46.117Z,6.50
2019-03-27T06:04:17.554Z,6.00
2019-03-27T06:06:46.881Z,5.67
2019-03-27T06:09:17.154Z,5.23
2019-03-27T06:11:47.325Z,5.60
2019-03-27T06:14:17.696Z,6.23
2019-03-27T06:16:47.959Z,6.10
2019-03-27T06:19:17.239Z,5.97
2019-03-27T06:21:47.417Z,4.43
2019-03-27T06:24:17.710Z,4.93
2019-03-27T06:26:47.971Z,5.43
2019-03-27T06:29:18.659Z,4.87
2019-03-27T06:31:48.983Z,5.60
2019-03-27T06:34:19.251Z,4.73
2019-03-27T06:36:49.467Z,4.83
2019-03-27T06:39:19.694Z,5.57
2019-03-27T06:41:49.010Z,5.53
2019-03-27T06:44:19.176Z,6.10
2019-03-27T06:46:49.362Z,5.77
2019-03-27T06:49:19.630Z,4.53
2019-03-27T06:51:48.908Z,5.90
2019-03-27T06:54:19.192Z,6.53
2019-03-27T06:56:49.440Z,5.00
2019-03-27T06:59:19.701Z,5.90
2019-03-27T07:01:50.039Z,5.67
2019-03-27T07:04:20.227Z,5.97
2019-03-27T07:06:49.493Z,5.80
2019-03-27T07:09:19.842Z,5.70
2019-03-27T07:11:49.157Z,5.57
2019-03-27T07:14:19.357Z,6.10
2019-03-27T07:16:49.621Z,5.80
2019-03-27T07:19:19.844Z,5.37
2019-03-27T07:21:49.145Z,5.43
2019-03-27T07:24:19.349Z,6.47
2019-03-27T07:26:49.589Z,5.40
2019-03-27T07:29:19.914Z,6.30
2019-03-27T07:31:50.224Z,6.00
2019-03-27T07:34:20.463Z,5.40
2019-03-27T07:36:50.648Z,6.07
2019-03-27T07:39:20.902Z,6.27
2019-03-27T07:41:51.134Z,6.47
2019-03-27T07:44:20.432Z,6.53
2019-03-27T07:46:50.644Z,5.83
2019-03-27T07:49:20.894Z,5.53
2019-03-27T07:51:55.437Z,6.40
2019-03-27T07:54:25.770Z,5.67
2019-03-27T07:56:56.004Z,5.73
2019-03-27T07:59:25.309Z,5.80
2019-03-27T08:01:55.869Z,5.67
2019-03-27T08:04:26.058Z,5.47
2019-03-27T08:06:56.259Z,3.63
2019-03-27T08:09:26.581Z,4.57
2019-03-27T08:11:56.797Z,3.80
2019-03-27T08:14:27.081Z,3.93
2019-03-27T08:16:57.303Z,3.30
2019-03-27T08:19:27.527Z,3.70
2019-03-27T08:21:57.804Z,2.67
2019-03-27T08:24:28.110Z,2.53
2019-03-27T08:26:58.305Z,2.40
2019-03-27T08:29:29.225Z,2.43
2019-03-27T08:31:59.436Z,2.10
2019-03-27T08:34:29.658Z,2.40
2019-03-27T08:36:59.968Z,2.20
2019-03-27T08:39:30.120Z,2.00
2019-03-27T08:42:01.286Z,2.30
2019-03-27T08:44:31.813Z,2.17
2019-03-27T08:47:02.023Z,2.10
2019-03-27T08:49:32.218Z,2.27
2019-03-27T08:52:02.455Z,2.17
2019-03-27T08:54:32.748Z,2.37
2019-03-27T08:57:02.994Z,1.93
2019-03-27T08:59:33.478Z,1.60
2019-03-27T09:02:03.646Z,1.60
2019-03-27T09:04:32.917Z,1.40
2019-03-27T09:07:03.081Z,1.10
2019-03-27T09:09:33.349Z,1.00
2019-03-27T09:12:03.509Z,1.13
2019-03-27T09:14:33.720Z,1.73
2019-03-27T09:17:03.950Z,1.70
2019-03-27T09:19:36.359Z,1.57
2019-03-27T09:22:06.757Z,1.50
2019-03-27T09:24:37.508Z,1.47
2019-03-27T09:27:08.628Z,1.83
2019-03-27T09:29:39.870Z,2.50
2019-03-27T09:32:11.756Z,2.37
2019-03-27T09:34:44.314Z,3.67
2019-03-27T09:37:14.502Z,2.80
2019-03-27T09:39:44.766Z,3.30
2019-03-27T09:42:15.024Z,1.87
2019-03-27T09:44:45.260Z,2.90
2019-03-27T09:47:19.699Z,2.93
2019-03-27T09:49:50.717Z,2.07
2019-03-27T09:52:21.006Z,3.00
2019-03-27T09:54:51.349Z,3.40
2019-03-27T09:57:21.677Z,2.50
2019-03-27T09:59:51.971Z,2.40
2019-03-27T10:02:22.341Z,2.30
2019-03-27T10:04:55.725Z,1.93
2019-03-27T10:07:24.392Z,4.93
2019-03-27T10:09:54.581Z,2.83
2019-03-27T10:12:26.126Z,1.10
2019-03-27T10:14:56.392Z,1.27
2019-03-27T10:17:26.658Z,1.83
2019-03-27T10:20:03.779Z,1.90
2019-03-27T10:22:56.542Z,2.30
2019-03-27T10:25:36.702Z,0.90
2019-03-27T10:28:10.587Z,2.10
2019-03-27T10:30:43.793Z,0.80
2019-03-27T10:33:21.889Z,1.43
2019-03-27T10:35:59.827Z,0.97
2019-03-27T10:38:36.623Z,1.30
2019-03-27T10:41:07.811Z,1.13
2019-03-27T10:43:46.075Z,1.30
2019-03-27T10:46:19.831Z,1.60
2019-03-27T10:48:52.886Z,1.50
2019-03-27T10:51:26.185Z,1.60
2019-03-27T10:54:12.319Z,2.40
2019-03-27T10:56:54.340Z,2.03
2019-03-27T10:59:44.539Z,1.67
2019-03-27T11:02:17.189Z,1.00
2019-03-27T11:04:49.458Z,1.00
2019-03-27T11:07:22.607Z,1.43
2019-03-27T11:09:54.584Z,1.50
2019-03-27T11:12:32.545Z,1.30
2019-03-27T11:15:16.458Z,1.50
2019-03-27T11:17:51.245Z,1.90
2019-03-27T11:20:31.531Z,2.30
2019-03-27T11:23:03.585Z,3.00
2019-03-27T11:25:35.679Z,3.50
2019-03-27T11:28:08.561Z,2.53
2019-03-27T11:30:48.547Z,1.77
2019-03-27T11:33:21.853Z,1.53
2019-03-27T11:35:53.722Z,1.60
2019-03-27T11:38:31.366Z,1.60
2019-03-27T11:41:02.848Z,1.53
2019-03-27T11:43:39.109Z,1.40
2019-03-27T11:46:12.117Z,1.70
2019-03-27T11:48:49.152Z,1.50
2019-03-27T11:51:22.616Z,1.40
2019-03-27T11:54:03.382Z,2.00
2019-03-27T11:56:34.923Z,1.80
2019-03-27T11:59:12.586Z,2.47
2019-03-27T12:01:51.004Z,1.40
2019-03-27T12:04:30.457Z,1.80
2019-03-27T12:07:11.108Z,1.67
2019-03-27T12:09:38.987Z,1.67
2019-03-27T12:12:11.205Z,1.33
2019-03-27T12:14:47.550Z,1.70
2019-03-27T12:17:23.187Z,1.40
2019-03-27T12:20:15.088Z,1.87
2019-03-27T12:22:57.801Z,1.50
2019-03-27T12:25:28.165Z,1.60
2019-03-27T12:28:01.249Z,1.00
2019-03-27T12:30:37.717Z,1.33
2019-03-27T12:33:13.919Z,1.90
2019-03-27T12:35:46.603Z,1.40
2019-03-27T12:38:21.729Z,1.53
2019-03-27T12:40:57.950Z,1.60
2019-03-27T12:43:35.568Z,1.50
2019-03-27T12:46:12.326Z,2.03
2019-03-27T12:48:44.984Z,1.50
2019-03-27T12:51:15.335Z,1.50
2019-03-27T12:53:49.205Z,1.57
2019-03-27T12:56:19.672Z,1.30
2019-03-27T12:58:52.477Z,1.47
2019-03-27T13:01:27.558Z,1.20
2019-03-27T13:03:59.791Z,1.57
2019-03-27T13:06:30.127Z,1.43
2019-03-27T13:09:02.712Z,1.30
2019-03-27T13:11:36.716Z,1.70
2019-03-27T13:14:06.819Z,0.83
2019-03-27T13:16:37.141Z,1.80
2019-03-27T13:19:07.473Z,1.50
2019-03-27T13:21:37.687Z,1.47
2019-03-27T13:24:07.949Z,1.90
2019-03-27T13:26:38.446Z,1.87
2019-03-27T13:29:11.382Z,1.30
2019-03-27T13:31:41.795Z,1.20
2019-03-27T13:34:13.988Z,1.87
2019-03-27T13:36:50.006Z,1.50
2019-03-27T13:39:27.213Z,2.13
2019-03-27T13:41:57.576Z,1.87
2019-03-27T13:44:39.322Z,2.20
2019-03-27T13:47:12.650Z,1.70
2019-03-27T13:50:08.234Z,1.70
2019-03-27T13:52:34.296Z,1.80
2019-03-27T13:55:04.950Z,2.03
2019-03-27T13:57:37.879Z,1.97
2019-03-27T14:00:10.546Z,1.60
2019-03-27T14:02:42.747Z,1.50
2019-03-27T14:05:18.803Z,1.93
2019-03-27T14:07:49.385Z,2.03
2019-03-27T14:10:23.397Z,1.87
2019-03-27T14:12:53.874Z,2.63
2019-03-27T14:15:24.562Z,2.20
2019-03-27T14:18:03.039Z,2.40
2019-03-27T14:20:35.631Z,2.17
2019-03-27T14:23:09.668Z,2.10
2019-03-27T14:25:39.919Z,1.80
2019-03-27T14:28:10.287Z,1.83
2019-03-27T14:30:56.551Z,1.90
2019-03-27T14:33:29.246Z,2.07
2019-03-27T14:36:02.942Z,1.70
2019-03-27T14:38:32.241Z,2.80
2019-03-27T14:41:05.329Z,2.43
2019-03-27T14:43:45.003Z,3.90
2019-03-27T14:46:15.600Z,3.87
2019-03-27T14:48:48.142Z,4.27
2019-03-27T14:51:18.511Z,3.60
2019-03-27T14:53:49.141Z,3.77
2019-03-27T14:56:18.462Z,4.37
2019-03-27T14:58:49.789Z,4.00
2019-03-27T15:01:20.782Z,4.27
2019-03-27T15:03:53.883Z,4.13
2019-03-27T15:06:25.637Z,4.27
2019-03-27T15:08:55.794Z,4.73
2019-03-27T15:11:29.291Z,4.67
2019-03-27T15:13:59.114Z,4.43
2019-03-27T15:16:29.398Z,3.77
2019-03-27T15:18:59.746Z,4.83
2019-03-27T15:21:32.196Z,4.17
2019-03-27T15:24:02.768Z,4.30
2019-03-27T15:26:33.025Z,4.20
2019-03-27T15:29:02.316Z,2.93
2019-03-27T15:31:35.249Z,3.43
2019-03-27T15:34:05.569Z,3.80
2019-03-27T15:36:37.269Z,3.50
2019-03-27T15:39:09.205Z,3.37
2019-03-27T15:41:39.467Z,3.93
2019-03-27T15:44:08.792Z,3.50
2019-03-27T15:46:39.000Z,3.47
2019-03-27T15:49:09.303Z,3.57
2019-03-27T15:51:39.561Z,3.90
2019-03-27T15:54:09.132Z,3.93
2019-03-27T15:56:39.843Z,3.77
2019-03-27T15:59:09.778Z,5.00
2019-03-27T16:01:40.076Z,4.70
2019-03-27T16:04:10.382Z,4.37
2019-03-27T16:06:40.680Z,4.43
2019-03-27T16:09:15.005Z,4.10
2019-03-27T16:11:45.309Z,3.90
2019-03-27T16:14:16.150Z,3.80
2019-03-27T16:17:01.277Z,3.70
2019-03-27T16:19:18.645Z,3.80
2019-03-27T16:21:50.485Z,3.37
2019-03-27T16:24:20.760Z,4.10
2019-03-27T16:27:03.884Z,4.17
2019-03-27T16:29:23.027Z,4.70
2019-03-27T16:31:54.457Z,5.10
2019-03-27T16:34:25.218Z,4.63
2019-03-27T16:36:54.743Z,5.13
2019-03-27T16:39:25.054Z,4.50
2019-03-27T16:41:55.318Z,5.20
2019-03-27T16:44:24.564Z,4.63
2019-03-27T16:46:54.848Z,4.47
2019-03-27T16:49:25.166Z,4.70
2019-03-27T16:51:56.560Z,4.63
2019-03-27T16:54:25.985Z,5.90
2019-03-27T16:56:56.553Z,4.83
2019-03-27T16:59:27.088Z,5.20
2019-03-27T17:01:56.766Z,5.70
2019-03-27T17:04:31.845Z,3.97
2019-03-27T17:07:02.070Z,4.10
2019-03-27T17:09:32.302Z,3.27
2019-03-27T17:12:03.144Z,4.40
2019-03-27T17:14:33.739Z,5.13
2019-03-27T17:17:03.993Z,4.77
2019-03-27T17:19:33.392Z,4.10
2019-03-27T17:22:03.611Z,5.17
2019-03-27T17:24:33.850Z,5.30
2019-03-27T17:27:06.437Z,5.37
2019-03-27T17:29:36.636Z,5.47
2019-03-27T17:32:06.347Z,5.43
2019-03-27T17:34:37.304Z,5.30
2019-03-27T17:37:07.542Z,6.13
2019-03-27T17:39:37.812Z,5.60
2019-03-27T17:42:08.162Z,5.53
2019-03-27T17:44:38.502Z,4.67
2019-03-27T17:47:07.790Z,5.23
2019-03-27T17:49:38.120Z,8.60
2019-03-27T17:52:07.439Z,4.60
2019-03-27T17:54:37.722Z,9.93
2019-03-27T17:57:08.155Z,3.60
2019-03-27T17:59:37.469Z,5.90
2019-03-27T18:02:07.297Z,4.83
2019-03-27T18:04:37.799Z,4.33
2019-03-27T18:07:08.092Z,3.57
2019-03-27T18:09:38.841Z,4.27
2019-03-27T18:12:09.265Z,4.53
2019-03-27T18:14:38.952Z,4.07
2019-03-27T18:17:09.600Z,4.77
2019-03-27T18:19:41.731Z,4.03
2019-03-27T18:22:12.229Z,4.00
2019-03-27T18:24:43.881Z,4.03
2019-03-27T18:27:14.305Z,3.83
2019-03-27T18:29:44.810Z,4.67
2019-03-27T18:32:15.453Z,4.60
2019-03-27T18:34:46.003Z,4.47
2019-03-27T18:37:16.533Z,5.27
2019-03-27T18:39:50.019Z,4.77
2019-03-27T18:42:20.403Z,4.73
2019-03-27T18:44:51.087Z,4.80
2019-03-27T18:47:21.486Z,5.53
2019-03-27T18:49:51.935Z,5.70
2019-03-27T18:52:22.259Z,6.40
2019-03-27T18:54:52.610Z,6.83
2019-03-27T18:57:22.959Z,6.50
2019-03-27T18:59:53.183Z,7.33
2019-03-27T19:02:23.586Z,7.43
2019-03-27T19:04:53.900Z,7.70
2019-03-27T19:07:24.186Z,8.00
2019-03-27T19:09:54.521Z,7.80
2019-03-27T19:12:26.986Z,6.87
2019-03-27T19:14:56.926Z,7.17
2019-03-27T19:17:27.611Z,7.07
2019-03-27T19:20:00.395Z,6.93
2019-03-27T19:22:30.791Z,6.40
2019-03-27T19:25:01.269Z,6.30
2019-03-27T19:27:31.678Z,5.57
2019-03-27T19:30:03.845Z,6.30
2019-03-27T19:32:41.801Z,5.97
2019-03-27T19:35:12.188Z,5.80
2019-03-27T19:37:42.563Z,5.23
2019-03-27T19:40:13.169Z,4.90
2019-03-27T19:42:43.451Z,4.50
2019-03-27T19:45:15.237Z,4.83
2019-03-27T19:47:46.111Z,5.17
2019-03-27T19:50:16.644Z,5.00
2019-03-27T19:52:47.029Z,4.70
2019-03-27T19:55:17.272Z,4.40
2019-03-27T19:57:47.531Z,5.03
2019-03-27T20:00:19.446Z,5.03
2019-03-27T20:02:49.936Z,5.00
2019-03-27T20:05:20.404Z,5.17
2019-03-27T20:07:50.814Z,5.43
2019-03-27T20:10:21.144Z,5.43
2019-03-27T20:12:50.517Z,5.83
2019-03-27T20:15:20.850Z,4.87
2019-03-27T20:17:51.174Z,5.07
2019-03-27T20:20:22.722Z,5.67
2019-03-27T20:22:53.272Z,5.33
2019-03-27T20:25:23.581Z,6.10
2019-03-27T20:27:53.867Z,5.70
2019-03-27T20:30:26.888Z,6.00
2019-03-27T20:32:55.771Z,5.97
2019-03-27T20:35:26.058Z,6.47
2019-03-27T20:37:56.327Z,6.10
2019-03-27T20:40:27.795Z,6.60
2019-03-27T20:42:58.294Z,6.73
2019-03-27T20:45:28.567Z,6.20
2019-03-27T20:47:58.802Z,6.13
2019-03-27T20:50:29.133Z,6.70
2019-03-27T20:53:00.107Z,6.27
2019-03-27T20:55:31.099Z,6.33
2019-03-27T20:58:00.526Z,6.43
2019-03-27T21:00:30.830Z,7.20
2019-03-27T21:03:00.173Z,6.40
2019-03-27T21:05:30.516Z,6.20
2019-03-27T21:08:00.809Z,6.20
2019-03-27T21:10:31.327Z,6.17
2019-03-27T21:13:01.668Z,6.50
2019-03-27T21:15:31.894Z,5.80
2019-03-27T21:18:05.654Z,6.90
2019-03-27T21:20:35.964Z,6.50
2019-03-27T21:23:06.216Z,6.73
2019-03-27T21:25:39.292Z,5.63
2019-03-27T21:28:09.578Z,5.67
2019-03-27T21:30:41.168Z,5.60
2019-03-27T21:33:11.531Z,5.57
2019-03-27T21:35:41.886Z,5.13
2019-03-27T21:38:12.123Z,5.43
2019-03-27T21:40:45.888Z,5.13
2019-03-27T21:43:16.152Z,4.73
2019-03-27T21:45:47.788Z,5.50
2019-03-27T21:48:17.996Z,4.53
2019-03-27T21:50:48.817Z,4.97
2019-03-27T21:53:22.014Z,5.20
2019-03-27T21:55:52.707Z,4.97
2019-03-27T21:58:24.049Z,5.27
2019-03-27T22:00:54.372Z,4.93
2019-03-27T22:03:24.849Z,5.33
2019-03-27T22:05:56.507Z,5.20
2019-03-27T22:08:27.968Z,5.47
2019-03-27T22:10:58.332Z,5.53
2019-03-27T22:13:29.899Z,5.60
2019-03-27T22:16:01.937Z,5.80
2019-03-27T22:18:32.339Z,6.10
2019-03-27T22:21:05.398Z,5.57
2019-03-27T22:23:35.843Z,5.97
2019-03-27T22:26:06.164Z,5.93
2019-03-27T22:28:36.476Z,6.30
2019-03-27T22:31:09.057Z,5.83
2019-03-27T22:33:41.344Z,6.10
2019-03-27T22:36:11.714Z,6.33
2019-03-27T22:38:44.595Z,7.13
2019-03-27T22:41:14.973Z,6.63
2019-03-27T22:43:50.054Z,6.60
2019-03-27T22:46:21.424Z,7.03
2019-03-27T22:48:53.473Z,8.23
2019-03-27T22:51:26.016Z,7.33
2019-03-27T22:53:56.971Z,7.80
2019-03-27T22:56:28.325Z,8.03
2019-03-27T22:58:58.833Z,8.00
2019-03-27T23:01:38.262Z,6.50
2019-03-27T23:04:11.896Z,7.90
2019-03-27T23:06:42.318Z,8.13
2019-03-27T23:09:12.707Z,8.97
2019-03-27T23:11:43.220Z,8.43
2019-03-27T23:14:13.650Z,8.43
2019-03-27T23:16:45.022Z,8.30
2019-03-27T23:19:15.355Z,8.70
2019-03-27T23:21:45.780Z,8.67
2019-03-27T23:24:16.442Z,8.40
2019-03-27T23:26:46.884Z,7.90
2019-03-27T23:29:18.169Z,9.07
2019-03-27T23:31:48.420Z,8.60
2019-03-27T23:34:22.048Z,8.33
2019-03-27T23:36:52.441Z,8.67
2019-03-27T23:39:23.043Z,8.70
2019-03-27T23:41:53.297Z,8.00
2019-03-27T23:44:24.856Z,8.97
2019-03-27T23:46:57.130Z,8.97
2019-03-27T23:49:30.015Z,10.13
2019-03-27T23:52:00.326Z,8.63
2019-03-27T23:54:30.648Z,8.57
2019-03-27T23:57:02.738Z,8.63
2019-03-27T23:59:33.576Z,8.93
